sensor_id;sensor_type;location;lat;lon;timestamp;P1;durP1;ratioP1;P2;durP2;ratioP2
42614;SDS011;28754;47.700;7.924;2022-08-23T00:01:11;4.07;;;2.72;;
42614;SDS011;28754;47.700;7.924;2022-08-23T00:04:02;4.07;;;2.83;;
42614;SDS011;28754;47.700;7.924;2022-08-23T00:06:55;3.63;;;2.78;;
42614;SDS011;28754;47.700;7.924;2022-08-23T00:09:42;5.95;;;2.80;;
42614;SDS011;28754;47.700;7.924;2022-08-23T00:12:29;5.55;;;3.13;;
42614;SDS011;28754;47.700;7.924;2022-08-23T00:15:16;4.28;;;2.97;;
42614;SDS011;28754;47.700;7.924;2022-08-23T00:18:05;6.80;;;2.70;;
42614;SDS011;28754;47.700;7.924;2022-08-23T00:20:52;3.50;;;2.83;;
42614;SDS011;28754;47.700;7.924;2022-08-23T00:23:38;4.75;;;2.58;;
42614;SDS011;28754;47.700;7.924;2022-08-23T00:26:25;6.25;;;3.05;;
42614;SDS011;28754;47.700;7.924;2022-08-23T00:29:12;4.25;;;2.92;;
42614;SDS011;28754;47.700;7.924;2022-08-23T00:31:59;6.13;;;2.78;;
42614;SDS011;28754;47.700;7.924;2022-08-23T00:34:46;3.85;;;2.38;;
42614;SDS011;28754;47.700;7.924;2022-08-23T00:37:33;5.50;;;2.90;;
42614;SDS011;28754;47.700;7.924;2022-08-23T00:40:21;8.05;;;2.85;;
42614;SDS011;28754;47.700;7.924;2022-08-23T00:43:09;6.35;;;3.13;;
42614;SDS011;28754;47.700;7.924;2022-08-23T00:46:22;4.63;;;2.88;;
42614;SDS011;28754;47.700;7.924;2022-08-23T00:49:54;6.53;;;3.25;;
42614;SDS011;28754;47.700;7.924;2022-08-23T00:53:03;5.75;;;3.10;;
42614;SDS011;28754;47.700;7.924;2022-08-23T00:56:17;4.68;;;2.78;;
42614;SDS011;28754;47.700;7.924;2022-08-23T00:59:07;3.83;;;2.83;;
42614;SDS011;28754;47.700;7.924;2022-08-23T01:01:54;6.43;;;3.60;;
42614;SDS011;28754;47.700;7.924;2022-08-23T01:04:43;2.88;;;2.47;;
42614;SDS011;28754;47.700;7.924;2022-08-23T01:10:44;3.92;;;2.70;;
42614;SDS011;28754;47.700;7.924;2022-08-23T01:13:53;7.93;;;3.17;;
42614;SDS011;28754;47.700;7.924;2022-08-23T01:16:53;3.33;;;2.28;;
42614;SDS011;28754;47.700;7.924;2022-08-23T01:19:57;7.07;;;3.58;;
42614;SDS011;28754;47.700;7.924;2022-08-23T01:26:21;16.80;;;2.97;;
42614;SDS011;28754;47.700;7.924;2022-08-23T01:29:11;3.72;;;2.28;;
42614;SDS011;28754;47.700;7.924;2022-08-23T01:31:58;5.47;;;2.55;;
42614;SDS011;28754;47.700;7.924;2022-08-23T01:34:45;3.95;;;3.08;;
42614;SDS011;28754;47.700;7.924;2022-08-23T01:37:32;6.55;;;2.25;;
42614;SDS011;28754;47.700;7.924;2022-08-23T01:40:20;3.42;;;2.10;;
42614;SDS011;28754;47.700;7.924;2022-08-23T01:43:07;8.77;;;2.78;;
42614;SDS011;28754;47.700;7.924;2022-08-23T01:45:55;5.38;;;2.60;;
42614;SDS011;28754;47.700;7.924;2022-08-23T01:48:43;3.97;;;2.08;;
42614;SDS011;28754;47.700;7.924;2022-08-23T01:51:33;4.60;;;2.00;;
42614;SDS011;28754;47.700;7.924;2022-08-23T01:54:20;4.82;;;2.47;;
42614;SDS011;28754;47.700;7.924;2022-08-23T01:57:07;6.38;;;2.60;;
42614;SDS011;28754;47.700;7.924;2022-08-23T01:59:56;3.20;;;1.70;;
42614;SDS011;28754;47.700;7.924;2022-08-23T02:02:43;6.60;;;2.72;;
42614;SDS011;28754;47.700;7.924;2022-08-23T02:05:32;5.05;;;1.75;;
42614;SDS011;28754;47.700;7.924;2022-08-23T02:08:22;5.72;;;2.33;;
42614;SDS011;28754;47.700;7.924;2022-08-23T02:11:30;3.50;;;1.70;;
42614;SDS011;28754;47.700;7.924;2022-08-23T02:14:22;2.83;;;2.53;;
42614;SDS011;28754;47.700;7.924;2022-08-23T02:17:15;3.65;;;2.53;;
42614;SDS011;28754;47.700;7.924;2022-08-23T02:20:04;4.32;;;2.42;;
42614;SDS011;28754;47.700;7.924;2022-08-23T02:22:52;6.95;;;2.70;;
42614;SDS011;28754;47.700;7.924;2022-08-23T02:25:38;3.28;;;2.15;;
42614;SDS011;28754;47.700;7.924;2022-08-23T02:28:25;4.68;;;2.35;;
42614;SDS011;28754;47.700;7.924;2022-08-23T02:31:12;3.95;;;2.10;;
42614;SDS011;28754;47.700;7.924;2022-08-23T02:34:00;8.00;;;2.45;;
42614;SDS011;28754;47.700;7.924;2022-08-23T02:36:49;4.28;;;2.25;;
42614;SDS011;28754;47.700;7.924;2022-08-23T02:39:36;3.78;;;2.42;;
42614;SDS011;28754;47.700;7.924;2022-08-23T02:42:23;2.40;;;2.03;;
42614;SDS011;28754;47.700;7.924;2022-08-23T02:45:10;3.58;;;2.20;;
42614;SDS011;28754;47.700;7.924;2022-08-23T02:48:04;5.07;;;2.40;;
42614;SDS011;28754;47.700;7.924;2022-08-23T02:51:02;2.63;;;2.28;;
42614;SDS011;28754;47.700;7.924;2022-08-23T02:53:52;6.55;;;2.20;;
42614;SDS011;28754;47.700;7.924;2022-08-23T02:56:41;4.88;;;2.08;;
42614;SDS011;28754;47.700;7.924;2022-08-23T02:59:28;5.45;;;3.15;;
42614;SDS011;28754;47.700;7.924;2022-08-23T03:02:14;4.05;;;2.60;;
42614;SDS011;28754;47.700;7.924;2022-08-23T03:05:03;6.35;;;3.22;;
42614;SDS011;28754;47.700;7.924;2022-08-23T03:07:52;3.53;;;2.10;;
42614;SDS011;28754;47.700;7.924;2022-08-23T03:10:42;9.80;;;3.45;;
42614;SDS011;28754;47.700;7.924;2022-08-23T03:13:32;3.87;;;1.97;;
42614;SDS011;28754;47.700;7.924;2022-08-23T03:16:19;4.80;;;2.55;;
42614;SDS011;28754;47.700;7.924;2022-08-23T03:19:07;4.90;;;2.10;;
42614;SDS011;28754;47.700;7.924;2022-08-23T03:21:54;5.38;;;2.40;;
42614;SDS011;28754;47.700;7.924;2022-08-23T03:24:41;6.93;;;2.78;;
42614;SDS011;28754;47.700;7.924;2022-08-23T03:27:29;5.47;;;3.08;;
42614;SDS011;28754;47.700;7.924;2022-08-23T03:30:16;4.40;;;2.22;;
42614;SDS011;28754;47.700;7.924;2022-08-23T03:33:03;4.40;;;2.22;;
42614;SDS011;28754;47.700;7.924;2022-08-23T03:35:50;3.78;;;2.10;;
42614;SDS011;28754;47.700;7.924;2022-08-23T03:38:38;3.70;;;2.13;;
42614;SDS011;28754;47.700;7.924;2022-08-23T03:41:28;4.38;;;2.10;;
42614;SDS011;28754;47.700;7.924;2022-08-23T03:44:15;5.78;;;2.53;;
42614;SDS011;28754;47.700;7.924;2022-08-23T03:47:03;5.68;;;2.53;;
42614;SDS011;28754;47.700;7.924;2022-08-23T03:49:51;5.75;;;2.83;;
42614;SDS011;28754;47.700;7.924;2022-08-23T03:52:37;4.47;;;2.50;;
42614;SDS011;28754;47.700;7.924;2022-08-23T03:55:24;4.97;;;2.17;;
42614;SDS011;28754;47.700;7.924;2022-08-23T03:58:11;4.07;;;2.50;;
42614;SDS011;28754;47.700;7.924;2022-08-23T04:00:58;4.63;;;2.58;;
42614;SDS011;28754;47.700;7.924;2022-08-23T04:03:45;4.32;;;2.30;;
42614;SDS011;28754;47.700;7.924;2022-08-23T04:06:33;4.82;;;2.50;;
42614;SDS011;28754;47.700;7.924;2022-08-23T04:09:20;5.00;;;2.22;;
42614;SDS011;28754;47.700;7.924;2022-08-23T04:12:08;6.25;;;2.70;;
42614;SDS011;28754;47.700;7.924;2022-08-23T04:14:54;6.00;;;2.72;;
42614;SDS011;28754;47.700;7.924;2022-08-23T04:17:42;4.07;;;2.40;;
42614;SDS011;28754;47.700;7.924;2022-08-23T04:20:29;4.38;;;2.70;;
42614;SDS011;28754;47.700;7.924;2022-08-23T04:23:19;3.03;;;2.47;;
42614;SDS011;28754;47.700;7.924;2022-08-23T04:26:11;7.00;;;2.50;;
42614;SDS011;28754;47.700;7.924;2022-08-23T04:29:00;3.30;;;2.60;;
42614;SDS011;28754;47.700;7.924;2022-08-23T04:31:47;8.40;;;2.92;;
42614;SDS011;28754;47.700;7.924;2022-08-23T04:34:34;4.20;;;2.28;;
42614;SDS011;28754;47.700;7.924;2022-08-23T04:37:23;2.45;;;1.90;;
42614;SDS011;28754;47.700;7.924;2022-08-23T04:40:10;6.00;;;2.42;;
42614;SDS011;28754;47.700;7.924;2022-08-23T04:43:16;4.70;;;2.08;;
42614;SDS011;28754;47.700;7.924;2022-08-23T04:46:03;5.20;;;2.50;;
42614;SDS011;28754;47.700;7.924;2022-08-23T04:48:53;4.43;;;2.42;;
42614;SDS011;28754;47.700;7.924;2022-08-23T04:51:40;6.40;;;2.35;;
42614;SDS011;28754;47.700;7.924;2022-08-23T04:54:27;4.78;;;2.22;;
42614;SDS011;28754;47.700;7.924;2022-08-23T04:57:36;4.32;;;2.40;;
42614;SDS011;28754;47.700;7.924;2022-08-23T05:00:22;6.45;;;3.00;;
42614;SDS011;28754;47.700;7.924;2022-08-23T05:03:13;4.03;;;2.25;;
42614;SDS011;28754;47.700;7.924;2022-08-23T05:06:01;3.35;;;2.17;;
42614;SDS011;28754;47.700;7.924;2022-08-23T05:08:57;4.35;;;1.90;;
42614;SDS011;28754;47.700;7.924;2022-08-23T05:11:43;5.18;;;2.95;;
42614;SDS011;28754;47.700;7.924;2022-08-23T05:14:31;4.65;;;2.13;;
42614;SDS011;28754;47.700;7.924;2022-08-23T05:17:18;4.70;;;2.58;;
42614;SDS011;28754;47.700;7.924;2022-08-23T05:20:05;5.82;;;2.40;;
42614;SDS011;28754;47.700;7.924;2022-08-23T05:22:55;4.05;;;2.42;;
42614;SDS011;28754;47.700;7.924;2022-08-23T05:26:07;5.00;;;2.95;;
42614;SDS011;28754;47.700;7.924;2022-08-23T05:28:59;4.22;;;2.50;;
42614;SDS011;28754;47.700;7.924;2022-08-23T05:31:53;5.33;;;2.63;;
42614;SDS011;28754;47.700;7.924;2022-08-23T05:34:42;3.10;;;2.17;;
42614;SDS011;28754;47.700;7.924;2022-08-23T05:37:30;5.47;;;2.60;;
42614;SDS011;28754;47.700;7.924;2022-08-23T05:40:16;2.25;;;1.70;;
42614;SDS011;28754;47.700;7.924;2022-08-23T05:43:18;3.67;;;2.70;;
42614;SDS011;28754;47.700;7.924;2022-08-23T05:48:58;4.20;;;2.35;;
42614;SDS011;28754;47.700;7.924;2022-08-23T05:51:45;6.60;;;2.80;;
42614;SDS011;28754;47.700;7.924;2022-08-23T05:54:32;5.65;;;2.38;;
42614;SDS011;28754;47.700;7.924;2022-08-23T05:57:37;4.28;;;2.20;;
42614;SDS011;28754;47.700;7.924;2022-08-23T06:00:25;2.72;;;2.10;;
42614;SDS011;28754;47.700;7.924;2022-08-23T06:03:19;3.95;;;2.30;;
42614;SDS011;28754;47.700;7.924;2022-08-23T06:06:07;3.60;;;2.38;;
42614;SDS011;28754;47.700;7.924;2022-08-23T06:08:54;3.90;;;1.90;;
42614;SDS011;28754;47.700;7.924;2022-08-23T06:11:42;6.38;;;2.53;;
42614;SDS011;28754;47.700;7.924;2022-08-23T06:14:31;2.17;;;1.73;;
42614;SDS011;28754;47.700;7.924;2022-08-23T06:17:18;6.63;;;2.10;;
42614;SDS011;28754;47.700;7.924;2022-08-23T06:20:05;5.43;;;1.77;;
42614;SDS011;28754;47.700;7.924;2022-08-23T06:22:57;3.30;;;2.10;;
42614;SDS011;28754;47.700;7.924;2022-08-23T06:25:44;6.60;;;2.47;;
42614;SDS011;28754;47.700;7.924;2022-08-23T06:28:33;4.80;;;2.58;;
42614;SDS011;28754;47.700;7.924;2022-08-23T06:31:21;3.70;;;2.35;;
42614;SDS011;28754;47.700;7.924;2022-08-23T06:34:36;4.75;;;2.17;;
42614;SDS011;28754;47.700;7.924;2022-08-23T06:37:40;6.30;;;3.78;;
42614;SDS011;28754;47.700;7.924;2022-08-23T06:40:47;6.40;;;2.85;;
42614;SDS011;28754;47.700;7.924;2022-08-23T06:43:47;3.45;;;2.70;;
42614;SDS011;28754;47.700;7.924;2022-08-23T06:46:54;4.35;;;2.33;;
42614;SDS011;28754;47.700;7.924;2022-08-23T06:49:42;4.80;;;2.20;;
42614;SDS011;28754;47.700;7.924;2022-08-23T06:52:28;3.72;;;1.67;;
42614;SDS011;28754;47.700;7.924;2022-08-23T06:55:35;2.65;;;1.67;;
42614;SDS011;28754;47.700;7.924;2022-08-23T06:58:34;6.18;;;2.63;;
42614;SDS011;28754;47.700;7.924;2022-08-23T07:04:36;4.22;;;2.15;;
42614;SDS011;28754;47.700;7.924;2022-08-23T07:07:37;3.13;;;2.15;;
42614;SDS011;28754;47.700;7.924;2022-08-23T07:10:24;4.00;;;1.95;;
42614;SDS011;28754;47.700;7.924;2022-08-23T07:13:11;5.13;;;1.88;;
42614;SDS011;28754;47.700;7.924;2022-08-23T07:15:58;3.90;;;2.05;;
42614;SDS011;28754;47.700;7.924;2022-08-23T07:18:46;2.78;;;2.10;;
42614;SDS011;28754;47.700;7.924;2022-08-23T07:21:35;5.18;;;2.33;;
42614;SDS011;28754;47.700;7.924;2022-08-23T07:24:22;6.50;;;2.30;;
42614;SDS011;28754;47.700;7.924;2022-08-23T07:27:12;4.55;;;2.25;;
42614;SDS011;28754;47.700;7.924;2022-08-23T07:30:19;6.63;;;2.30;;
42614;SDS011;28754;47.700;7.924;2022-08-23T07:33:06;3.83;;;1.80;;
42614;SDS011;28754;47.700;7.924;2022-08-23T07:35:56;4.95;;;1.90;;
42614;SDS011;28754;47.700;7.924;2022-08-23T07:38:43;5.25;;;2.15;;
42614;SDS011;28754;47.700;7.924;2022-08-23T07:41:31;3.63;;;2.05;;
42614;SDS011;28754;47.700;7.924;2022-08-23T07:44:18;7.05;;;2.80;;
42614;SDS011;28754;47.700;7.924;2022-08-23T07:47:07;6.78;;;2.30;;
42614;SDS011;28754;47.700;7.924;2022-08-23T07:49:54;6.88;;;2.13;;
42614;SDS011;28754;47.700;7.924;2022-08-23T07:52:43;3.15;;;2.10;;
42614;SDS011;28754;47.700;7.924;2022-08-23T07:55:29;4.38;;;1.80;;
42614;SDS011;28754;47.700;7.924;2022-08-23T07:58:38;2.67;;;1.85;;
42614;SDS011;28754;47.700;7.924;2022-08-23T08:01:45;4.38;;;1.95;;
42614;SDS011;28754;47.700;7.924;2022-08-23T08:04:32;5.15;;;2.25;;
42614;SDS011;28754;47.700;7.924;2022-08-23T08:07:19;6.03;;;2.72;;
42614;SDS011;28754;47.700;7.924;2022-08-23T08:10:09;4.72;;;1.67;;
42614;SDS011;28754;47.700;7.924;2022-08-23T08:12:57;7.97;;;2.90;;
42614;SDS011;28754;47.700;7.924;2022-08-23T08:15:44;6.57;;;3.08;;
42614;SDS011;28754;47.700;7.924;2022-08-23T08:18:34;7.50;;;2.95;;
42614;SDS011;28754;47.700;7.924;2022-08-23T08:21:41;9.65;;;2.67;;
42614;SDS011;28754;47.700;7.924;2022-08-23T08:24:53;3.67;;;2.28;;
42614;SDS011;28754;47.700;7.924;2022-08-23T08:27:40;5.43;;;2.45;;
42614;SDS011;28754;47.700;7.924;2022-08-23T08:30:27;3.15;;;1.90;;
42614;SDS011;28754;47.700;7.924;2022-08-23T08:33:14;3.15;;;1.98;;
42614;SDS011;28754;47.700;7.924;2022-08-23T08:36:03;3.67;;;2.40;;
42614;SDS011;28754;47.700;7.924;2022-08-23T08:38:51;3.47;;;2.40;;
42614;SDS011;28754;47.700;7.924;2022-08-23T08:47:44;6.80;;;2.55;;
42614;SDS011;28754;47.700;7.924;2022-08-23T08:50:50;3.00;;;1.67;;
42614;SDS011;28754;47.700;7.924;2022-08-23T08:53:44;2.85;;;2.05;;
42614;SDS011;28754;47.700;7.924;2022-08-23T08:56:47;3.83;;;1.65;;
42614;SDS011;28754;47.700;7.924;2022-08-23T08:59:58;7.57;;;2.30;;
42614;SDS011;28754;47.700;7.924;2022-08-23T09:03:01;3.45;;;2.30;;
42614;SDS011;28754;47.700;7.924;2022-08-23T09:09:28;3.92;;;1.75;;
42614;SDS011;28754;47.700;7.924;2022-08-23T09:16:39;2.83;;;1.70;;
42614;SDS011;28754;47.700;7.924;2022-08-23T09:19:38;2.40;;;1.52;;
42614;SDS011;28754;47.700;7.924;2022-08-23T09:22:38;2.92;;;1.83;;
42614;SDS011;28754;47.700;7.924;2022-08-23T09:25:39;4.72;;;2.00;;
42614;SDS011;28754;47.700;7.924;2022-08-23T09:28:32;3.97;;;1.63;;
42614;SDS011;28754;47.700;7.924;2022-08-23T09:31:35;2.63;;;1.73;;
42614;SDS011;28754;47.700;7.924;2022-08-23T09:34:39;3.55;;;1.67;;
42614;SDS011;28754;47.700;7.924;2022-08-23T09:37:29;4.32;;;2.72;;
42614;SDS011;28754;47.700;7.924;2022-08-23T09:40:42;4.25;;;1.55;;
42614;SDS011;28754;47.700;7.924;2022-08-23T09:43:33;4.18;;;1.77;;
42614;SDS011;28754;47.700;7.924;2022-08-23T09:46:33;4.13;;;1.52;;
42614;SDS011;28754;47.700;7.924;2022-08-23T09:49:27;2.63;;;1.73;;
42614;SDS011;28754;47.700;7.924;2022-08-23T09:52:32;2.85;;;1.88;;
42614;SDS011;28754;47.700;7.924;2022-08-23T09:55:29;4.80;;;1.85;;
42614;SDS011;28754;47.700;7.924;2022-08-23T09:58:30;4.63;;;1.65;;
42614;SDS011;28754;47.700;7.924;2022-08-23T10:01:33;4.07;;;2.13;;
42614;SDS011;28754;47.700;7.924;2022-08-23T10:10:38;3.80;;;2.35;;
42614;SDS011;28754;47.700;7.924;2022-08-23T10:13:36;3.15;;;1.50;;
42614;SDS011;28754;47.700;7.924;2022-08-23T10:16:39;4.47;;;1.80;;
42614;SDS011;28754;47.700;7.924;2022-08-23T10:22:24;4.40;;;1.70;;
42614;SDS011;28754;47.700;7.924;2022-08-23T10:25:35;3.53;;;2.00;;
42614;SDS011;28754;47.700;7.924;2022-08-23T10:28:41;3.30;;;2.17;;
42614;SDS011;28754;47.700;7.924;2022-08-23T10:44:26;3.70;;;2.05;;
42614;SDS011;28754;47.700;7.924;2022-08-23T10:50:27;4.28;;;2.05;;
42614;SDS011;28754;47.700;7.924;2022-08-23T10:56:31;2.15;;;1.58;;
42614;SDS011;28754;47.700;7.924;2022-08-23T10:59:20;3.72;;;2.35;;
42614;SDS011;28754;47.700;7.924;2022-08-23T11:02:21;3.83;;;2.55;;
42614;SDS011;28754;47.700;7.924;2022-08-23T11:12:14;3.28;;;1.67;;
42614;SDS011;28754;47.700;7.924;2022-08-23T11:15:10;3.60;;;2.08;;
42614;SDS011;28754;47.700;7.924;2022-08-23T11:24:47;6.35;;;2.25;;
42614;SDS011;28754;47.700;7.924;2022-08-23T11:27:42;5.13;;;1.85;;
42614;SDS011;28754;47.700;7.924;2022-08-23T11:30:42;6.13;;;1.67;;
42614;SDS011;28754;47.700;7.924;2022-08-23T11:36:38;3.22;;;2.05;;
42614;SDS011;28754;47.700;7.924;2022-08-23T11:39:25;3.90;;;1.95;;
42614;SDS011;28754;47.700;7.924;2022-08-23T11:42:16;3.67;;;1.35;;
42614;SDS011;28754;47.700;7.924;2022-08-23T11:57:55;4.53;;;2.08;;
42614;SDS011;28754;47.700;7.924;2022-08-23T12:01:33;2.60;;;1.70;;
42614;SDS011;28754;47.700;7.924;2022-08-23T12:04:31;2.20;;;1.50;;
42614;SDS011;28754;47.700;7.924;2022-08-23T12:13:31;4.70;;;2.30;;
42614;SDS011;28754;47.700;7.924;2022-08-23T12:16:38;3.53;;;1.70;;
42614;SDS011;28754;47.700;7.924;2022-08-23T12:19:33;2.35;;;1.52;;
42614;SDS011;28754;47.700;7.924;2022-08-23T12:22:26;3.25;;;1.77;;
42614;SDS011;28754;47.700;7.924;2022-08-23T12:25:35;4.00;;;1.40;;
42614;SDS011;28754;47.700;7.924;2022-08-23T12:31:34;3.00;;;1.13;;
42614;SDS011;28754;47.700;7.924;2022-08-23T12:37:40;5.45;;;2.03;;
42614;SDS011;28754;47.700;7.924;2022-08-23T12:40:35;3.95;;;1.52;;
42614;SDS011;28754;47.700;7.924;2022-08-23T12:43:28;3.42;;;1.42;;
42614;SDS011;28754;47.700;7.924;2022-08-23T12:46:26;2.95;;;1.92;;
42614;SDS011;28754;47.700;7.924;2022-08-23T12:52:22;4.07;;;1.40;;
42614;SDS011;28754;47.700;7.924;2022-08-23T12:55:15;2.90;;;1.33;;
42614;SDS011;28754;47.700;7.924;2022-08-23T12:58:05;3.30;;;1.63;;
42614;SDS011;28754;47.700;7.924;2022-08-23T13:00:55;2.65;;;1.38;;
42614;SDS011;28754;47.700;7.924;2022-08-23T13:03:45;3.70;;;1.20;;
42614;SDS011;28754;47.700;7.924;2022-08-23T13:06:41;5.28;;;1.70;;
42614;SDS011;28754;47.700;7.924;2022-08-23T13:09:43;1.70;;;1.23;;
42614;SDS011;28754;47.700;7.924;2022-08-23T13:12:30;3.78;;;1.30;;
42614;SDS011;28754;47.700;7.924;2022-08-23T13:18:40;3.80;;;1.23;;
42614;SDS011;28754;47.700;7.924;2022-08-23T13:21:28;6.95;;;1.33;;
42614;SDS011;28754;47.700;7.924;2022-08-23T13:24:29;1.52;;;0.93;;
42614;SDS011;28754;47.700;7.924;2022-08-23T13:27:25;1.77;;;1.10;;
42614;SDS011;28754;47.700;7.924;2022-08-23T13:30:26;3.58;;;1.48;;
42614;SDS011;28754;47.700;7.924;2022-08-23T13:33:20;3.03;;;2.22;;
42614;SDS011;28754;47.700;7.924;2022-08-23T13:36:14;2.85;;;1.30;;
42614;SDS011;28754;47.700;7.924;2022-08-23T13:39:05;6.38;;;1.35;;
42614;SDS011;28754;47.700;7.924;2022-08-23T13:41:52;2.42;;;1.30;;
42614;SDS011;28754;47.700;7.924;2022-08-23T13:44:40;2.22;;;1.50;;
42614;SDS011;28754;47.700;7.924;2022-08-23T13:47:28;2.35;;;1.10;;
42614;SDS011;28754;47.700;7.924;2022-08-23T13:50:17;2.40;;;1.30;;
42614;SDS011;28754;47.700;7.924;2022-08-23T13:56:07;2.45;;;1.23;;
42614;SDS011;28754;47.700;7.924;2022-08-23T13:58:58;3.40;;;1.25;;
42614;SDS011;28754;47.700;7.924;2022-08-23T14:01:49;7.53;;;1.77;;
42614;SDS011;28754;47.700;7.924;2022-08-23T14:04:37;3.28;;;1.45;;
42614;SDS011;28754;47.700;7.924;2022-08-23T14:07:23;2.55;;;1.20;;
42614;SDS011;28754;47.700;7.924;2022-08-23T14:10:10;4.38;;;1.20;;
42614;SDS011;28754;47.700;7.924;2022-08-23T14:12:58;3.72;;;1.70;;
42614;SDS011;28754;47.700;7.924;2022-08-23T14:15:46;3.00;;;1.50;;
42614;SDS011;28754;47.700;7.924;2022-08-23T14:18:33;2.83;;;1.23;;
42614;SDS011;28754;47.700;7.924;2022-08-23T14:21:20;5.05;;;1.33;;
42614;SDS011;28754;47.700;7.924;2022-08-23T14:24:07;1.48;;;1.25;;
42614;SDS011;28754;47.700;7.924;2022-08-23T14:26:54;3.00;;;1.75;;
42614;SDS011;28754;47.700;7.924;2022-08-23T14:29:42;1.92;;;1.33;;
42614;SDS011;28754;47.700;7.924;2022-08-23T14:32:29;1.63;;;1.45;;
42614;SDS011;28754;47.700;7.924;2022-08-23T14:35:16;2.40;;;1.00;;
42614;SDS011;28754;47.700;7.924;2022-08-23T14:38:02;4.07;;;1.42;;
42614;SDS011;28754;47.700;7.924;2022-08-23T14:40:53;2.50;;;1.67;;
42614;SDS011;28754;47.700;7.924;2022-08-23T14:43:46;2.70;;;1.58;;
42614;SDS011;28754;47.700;7.924;2022-08-23T14:46:35;2.10;;;1.20;;
42614;SDS011;28754;47.700;7.924;2022-08-23T14:49:21;2.20;;;1.38;;
42614;SDS011;28754;47.700;7.924;2022-08-23T14:52:09;1.60;;;0.98;;
42614;SDS011;28754;47.700;7.924;2022-08-23T14:54:59;3.25;;;1.38;;
42614;SDS011;28754;47.700;7.924;2022-08-23T14:57:46;2.47;;;1.48;;
42614;SDS011;28754;47.700;7.924;2022-08-23T15:00:34;2.45;;;1.35;;
42614;SDS011;28754;47.700;7.924;2022-08-23T15:03:25;3.35;;;1.40;;
42614;SDS011;28754;47.700;7.924;2022-08-23T15:06:12;2.50;;;1.23;;
42614;SDS011;28754;47.700;7.924;2022-08-23T15:09:02;2.20;;;1.08;;
42614;SDS011;28754;47.700;7.924;2022-08-23T15:11:49;3.05;;;1.60;;
42614;SDS011;28754;47.700;7.924;2022-08-23T15:14:36;3.13;;;1.33;;
42614;SDS011;28754;47.700;7.924;2022-08-23T15:17:23;3.70;;;1.33;;
42614;SDS011;28754;47.700;7.924;2022-08-23T15:20:10;2.80;;;1.13;;
42614;SDS011;28754;47.700;7.924;2022-08-23T15:22:57;2.95;;;1.50;;
42614;SDS011;28754;47.700;7.924;2022-08-23T15:25:44;1.75;;;1.10;;
42614;SDS011;28754;47.700;7.924;2022-08-23T15:28:30;1.15;;;1.00;;
42614;SDS011;28754;47.700;7.924;2022-08-23T15:31:17;2.80;;;0.95;;
42614;SDS011;28754;47.700;7.924;2022-08-23T15:34:05;2.00;;;1.63;;
42614;SDS011;28754;47.700;7.924;2022-08-23T15:36:52;3.13;;;1.63;;
42614;SDS011;28754;47.700;7.924;2022-08-23T15:39:39;4.28;;;1.13;;
42614;SDS011;28754;47.700;7.924;2022-08-23T15:42:27;2.15;;;1.20;;
42614;SDS011;28754;47.700;7.924;2022-08-23T15:45:13;2.55;;;1.33;;
42614;SDS011;28754;47.700;7.924;2022-08-23T15:48:00;3.72;;;1.23;;
42614;SDS011;28754;47.700;7.924;2022-08-23T15:50:57;3.08;;;1.10;;
42614;SDS011;28754;47.700;7.924;2022-08-23T15:53:44;1.70;;;1.20;;
42614;SDS011;28754;47.700;7.924;2022-08-23T15:56:42;2.22;;;1.05;;
42614;SDS011;28754;47.700;7.924;2022-08-23T15:59:35;2.22;;;1.23;;
42614;SDS011;28754;47.700;7.924;2022-08-23T16:02:22;3.47;;;1.48;;
42614;SDS011;28754;47.700;7.924;2022-08-23T16:05:09;3.10;;;1.30;;
42614;SDS011;28754;47.700;7.924;2022-08-23T16:07:56;3.85;;;1.60;;
42614;SDS011;28754;47.700;7.924;2022-08-23T16:10:43;2.00;;;1.30;;
42614;SDS011;28754;47.700;7.924;2022-08-23T16:13:30;2.25;;;1.23;;
42614;SDS011;28754;47.700;7.924;2022-08-23T16:16:18;6.72;;;1.88;;
42614;SDS011;28754;47.700;7.924;2022-08-23T16:19:13;5.30;;;1.38;;
42614;SDS011;28754;47.700;7.924;2022-08-23T16:22:00;1.67;;;1.20;;
42614;SDS011;28754;47.700;7.924;2022-08-23T16:24:47;2.17;;;1.25;;
42614;SDS011;28754;47.700;7.924;2022-08-23T16:27:34;4.22;;;1.15;;
42614;SDS011;28754;47.700;7.924;2022-08-23T16:30:21;3.63;;;1.60;;
42614;SDS011;28754;47.700;7.924;2022-08-23T16:33:08;2.50;;;1.55;;
42614;SDS011;28754;47.700;7.924;2022-08-23T16:35:55;1.77;;;0.98;;
42614;SDS011;28754;47.700;7.924;2022-08-23T16:38:42;3.28;;;1.40;;
42614;SDS011;28754;47.700;7.924;2022-08-23T16:41:29;2.78;;;1.65;;
42614;SDS011;28754;47.700;7.924;2022-08-23T16:44:16;4.15;;;1.95;;
42614;SDS011;28754;47.700;7.924;2022-08-23T16:47:04;2.35;;;1.63;;
42614;SDS011;28754;47.700;7.924;2022-08-23T16:49:53;2.65;;;1.38;;
42614;SDS011;28754;47.700;7.924;2022-08-23T16:52:40;1.85;;;1.30;;
42614;SDS011;28754;47.700;7.924;2022-08-23T16:55:28;2.90;;;1.25;;
42614;SDS011;28754;47.700;7.924;2022-08-23T16:58:14;3.22;;;1.73;;
42614;SDS011;28754;47.700;7.924;2022-08-23T17:01:01;3.58;;;1.67;;
42614;SDS011;28754;47.700;7.924;2022-08-23T17:03:49;4.18;;;1.67;;
42614;SDS011;28754;47.700;7.924;2022-08-23T17:06:36;1.73;;;1.42;;
42614;SDS011;28754;47.700;7.924;2022-08-23T17:09:24;2.58;;;1.30;;
42614;SDS011;28754;47.700;7.924;2022-08-23T17:12:13;2.72;;;1.55;;
42614;SDS011;28754;47.700;7.924;2022-08-23T17:15:02;5.63;;;1.63;;
42614;SDS011;28754;47.700;7.924;2022-08-23T17:17:50;3.05;;;1.52;;
42614;SDS011;28754;47.700;7.924;2022-08-23T17:20:37;3.92;;;1.38;;
42614;SDS011;28754;47.700;7.924;2022-08-23T17:23:24;2.45;;;1.40;;
42614;SDS011;28754;47.700;7.924;2022-08-23T17:26:11;3.10;;;1.80;;
42614;SDS011;28754;47.700;7.924;2022-08-23T17:28:58;1.63;;;1.23;;
42614;SDS011;28754;47.700;7.924;2022-08-23T17:31:46;2.05;;;1.65;;
42614;SDS011;28754;47.700;7.924;2022-08-23T17:34:33;2.58;;;1.88;;
42614;SDS011;28754;47.700;7.924;2022-08-23T17:37:21;3.03;;;1.90;;
42614;SDS011;28754;47.700;7.924;2022-08-23T17:40:10;2.95;;;1.70;;
42614;SDS011;28754;47.700;7.924;2022-08-23T17:43:01;2.53;;;1.40;;
42614;SDS011;28754;47.700;7.924;2022-08-23T17:46:02;3.70;;;1.58;;
42614;SDS011;28754;47.700;7.924;2022-08-23T17:48:48;3.53;;;1.45;;
42614;SDS011;28754;47.700;7.924;2022-08-23T17:51:35;2.33;;;1.23;;
42614;SDS011;28754;47.700;7.924;2022-08-23T17:54:25;2.38;;;1.70;;
42614;SDS011;28754;47.700;7.924;2022-08-23T17:57:12;6.07;;;1.45;;
42614;SDS011;28754;47.700;7.924;2022-08-23T17:59:59;2.45;;;1.60;;
42614;SDS011;28754;47.700;7.924;2022-08-23T18:02:46;2.33;;;1.20;;
42614;SDS011;28754;47.700;7.924;2022-08-23T18:05:33;2.75;;;1.48;;
42614;SDS011;28754;47.700;7.924;2022-08-23T18:08:23;4.90;;;1.73;;
42614;SDS011;28754;47.700;7.924;2022-08-23T18:11:10;5.10;;;2.05;;
42614;SDS011;28754;47.700;7.924;2022-08-23T18:13:58;2.05;;;1.30;;
42614;SDS011;28754;47.700;7.924;2022-08-23T18:16:45;4.50;;;2.55;;
42614;SDS011;28754;47.700;7.924;2022-08-23T18:19:32;3.58;;;1.83;;
42614;SDS011;28754;47.700;7.924;2022-08-23T18:22:19;3.30;;;1.58;;
42614;SDS011;28754;47.700;7.924;2022-08-23T18:25:07;5.97;;;1.42;;
42614;SDS011;28754;47.700;7.924;2022-08-23T18:27:55;2.78;;;1.63;;
42614;SDS011;28754;47.700;7.924;2022-08-23T18:30:52;4.97;;;1.73;;
42614;SDS011;28754;47.700;7.924;2022-08-23T18:33:40;3.17;;;1.88;;
42614;SDS011;28754;47.700;7.924;2022-08-23T18:36:27;6.15;;;1.70;;
42614;SDS011;28754;47.700;7.924;2022-08-23T18:39:15;4.85;;;1.42;;
42614;SDS011;28754;47.700;7.924;2022-08-23T18:42:03;2.08;;;1.48;;
42614;SDS011;28754;47.700;7.924;2022-08-23T18:44:50;5.28;;;2.03;;
42614;SDS011;28754;47.700;7.924;2022-08-23T18:47:37;5.97;;;2.35;;
42614;SDS011;28754;47.700;7.924;2022-08-23T18:50:25;6.28;;;2.15;;
42614;SDS011;28754;47.700;7.924;2022-08-23T18:53:12;4.10;;;1.85;;
42614;SDS011;28754;47.700;7.924;2022-08-23T18:55:59;3.45;;;2.00;;
42614;SDS011;28754;47.700;7.924;2022-08-23T18:58:45;2.97;;;1.50;;